Portada
METAR-TAF:

METAR-TAF

Aeropuertos :

Yap, Yap Island, Micronesia

Aeropuerto Internacional de Yap

latitud: 09-29N, longitud: 138-05E, altitud: 28 m

Observación

El informe se hizo hace 17 minutos, a las 22:50 UTC
Viento 5 kt con dirección variable
Temperatura 29°C
Humedad 84%
Presión 1009 hPa
Visibilidad: 19.3 km
Escasas nubes a una altura de 1600 ft, Cumulus congestus.
Cielo nuboso a una altura de 30000 ft

METAR: PTYA 172250Z VRB05KT 12SM FEW016TCU BKN300 29/26 A2980 RMK TCU E SLP093 T02910259

Hora: 09:07 (23:07 UTC)

Pronóstico

El informe se hizo hace 5 horas y 47 minutos, a las 17:20 UTC
Pronóstico válido del 17 a las 18 UTC al 18 a las 18 UTC
Viento 5 kt con dirección variable
Visibilidad: 10 km
Nubes dispersas a una altura de 1600 ft
chaparrones en las proximidades

TAF: PTYA 171720Z 1718/1818 VRB05KT P6SM VCSH SCT016

Observaciones y pronósticos meteorológicos de más de 4000 aeropuertos (mensajes METAR y TAF).

Los puntos amarillos y rojos representan las estaciones disponibles.

Ponga el ratón en el punto deseado para ver el nombre de la estación.

Haga clic para ver las observaciones y los pronósticos meteorológicos.

Para cambiar el mapa : haga clic en los botones verdes con una cruz de color negro para hacer un zoom, en el botón verde con un guión para alejar o en las flechas verdes para mapas adyacentes.


METAR-TAF: